sensor_id;sensor_type;location;lat;lon;timestamp;temperature;humidity
10306;DHT22;5198;52.382;9.020;2023-03-24T00:03:08;13.00;99.90
10306;DHT22;5198;52.382;9.020;2023-03-24T00:07:11;13.00;99.90
10306;DHT22;5198;52.382;9.020;2023-03-24T00:11:17;13.10;99.90
10306;DHT22;5198;52.382;9.020;2023-03-24T00:15:21;13.10;99.90
10306;DHT22;5198;52.382;9.020;2023-03-24T00:19:24;13.10;99.90
10306;DHT22;5198;52.382;9.020;2023-03-24T00:23:28;13.00;99.90
10306;DHT22;5198;52.382;9.020;2023-03-24T00:27:35;13.00;99.90
10306;DHT22;5198;52.382;9.020;2023-03-24T00:31:39;13.00;99.90
10306;DHT22;5198;52.382;9.020;2023-03-24T00:35:42;12.90;99.90
10306;DHT22;5198;52.382;9.020;2023-03-24T00:39:46;12.90;99.90
10306;DHT22;5198;52.382;9.020;2023-03-24T00:43:52;12.90;99.90
10306;DHT22;5198;52.382;9.020;2023-03-24T00:47:55;12.90;99.90
10306;DHT22;5198;52.382;9.020;2023-03-24T00:51:58;12.90;99.90
10306;DHT22;5198;52.382;9.020;2023-03-24T00:56:02;12.80;99.90
10306;DHT22;5198;52.382;9.020;2023-03-24T01:00:07;12.80;99.90
10306;DHT22;5198;52.382;9.020;2023-03-24T01:04:15;12.80;99.90
10306;DHT22;5198;52.382;9.020;2023-03-24T01:08:17;12.80;99.90
10306;DHT22;5198;52.382;9.020;2023-03-24T01:12:21;12.70;99.90
10306;DHT22;5198;52.382;9.020;2023-03-24T01:16:26;12.70;99.90
10306;DHT22;5198;52.382;9.020;2023-03-24T01:20:29;12.70;99.90
10306;DHT22;5198;52.382;9.020;2023-03-24T01:24:33;12.70;99.90
10306;DHT22;5198;52.382;9.020;2023-03-24T01:28:36;12.70;99.90
10306;DHT22;5198;52.382;9.020;2023-03-24T01:32:52;12.70;99.90
10306;DHT22;5198;52.382;9.020;2023-03-24T01:36:55;12.70;99.90
10306;DHT22;5198;52.382;9.020;2023-03-24T01:40:57;12.80;99.90
10306;DHT22;5198;52.382;9.020;2023-03-24T01:45:32;12.70;99.90
10306;DHT22;5198;52.382;9.020;2023-03-24T01:49:33;12.70;99.90
10306;DHT22;5198;52.382;9.020;2023-03-24T01:53:39;12.70;99.90
10306;DHT22;5198;52.382;9.020;2023-03-24T01:57:44;12.80;99.90
10306;DHT22;5198;52.382;9.020;2023-03-24T02:01:49;12.70;99.90
10306;DHT22;5198;52.382;9.020;2023-03-24T02:05:54;12.80;99.90
10306;DHT22;5198;52.382;9.020;2023-03-24T02:09:58;12.70;99.90
10306;DHT22;5198;52.382;9.020;2023-03-24T02:14:01;12.70;99.90
10306;DHT22;5198;52.382;9.020;2023-03-24T02:18:05;12.70;99.90
10306;DHT22;5198;52.382;9.020;2023-03-24T02:22:16;12.80;99.90
10306;DHT22;5198;52.382;9.020;2023-03-24T02:30:56;12.80;99.90
10306;DHT22;5198;52.382;9.020;2023-03-24T02:35:21;12.80;99.90
10306;DHT22;5198;52.382;9.020;2023-03-24T02:39:36;12.80;99.90
10306;DHT22;5198;52.382;9.020;2023-03-24T02:43:43;12.80;99.90
10306;DHT22;5198;52.382;9.020;2023-03-24T02:47:51;12.80;99.90
10306;DHT22;5198;52.382;9.020;2023-03-24T02:51:58;12.80;99.90
10306;DHT22;5198;52.382;9.020;2023-03-24T02:56:04;12.90;99.90
10306;DHT22;5198;52.382;9.020;2023-03-24T03:00:12;12.80;99.90
10306;DHT22;5198;52.382;9.020;2023-03-24T03:04:19;12.90;99.90
10306;DHT22;5198;52.382;9.020;2023-03-24T03:08:23;12.90;99.90
10306;DHT22;5198;52.382;9.020;2023-03-24T03:12:30;12.90;99.90
10306;DHT22;5198;52.382;9.020;2023-03-24T03:16:36;12.90;99.90
10306;DHT22;5198;52.382;9.020;2023-03-24T03:20:41;13.00;99.90
10306;DHT22;5198;52.382;9.020;2023-03-24T03:24:51;13.00;99.90
10306;DHT22;5198;52.382;9.020;2023-03-24T03:28:59;12.90;99.90
10306;DHT22;5198;52.382;9.020;2023-03-24T03:33:04;13.00;99.90
10306;DHT22;5198;52.382;9.020;2023-03-24T03:37:08;13.00;99.90
10306;DHT22;5198;52.382;9.020;2023-03-24T03:41:14;13.00;99.90
10306;DHT22;5198;52.382;9.020;2023-03-24T03:45:20;13.00;99.90
10306;DHT22;5198;52.382;9.020;2023-03-24T03:49:23;13.10;99.90
10306;DHT22;5198;52.382;9.020;2023-03-24T03:53:27;13.10;99.90
10306;DHT22;5198;52.382;9.020;2023-03-24T03:57:32;13.10;99.90
10306;DHT22;5198;52.382;9.020;2023-03-24T04:01:37;13.10;99.90
10306;DHT22;5198;52.382;9.020;2023-03-24T04:05:43;13.20;99.90
10306;DHT22;5198;52.382;9.020;2023-03-24T04:09:51;13.20;99.90
10306;DHT22;5198;52.382;9.020;2023-03-24T04:13:59;13.20;99.90
10306;DHT22;5198;52.382;9.020;2023-03-24T04:18:19;13.20;99.90
10306;DHT22;5198;52.382;9.020;2023-03-24T04:22:24;13.20;99.90
10306;DHT22;5198;52.382;9.020;2023-03-24T04:26:29;13.30;99.90
10306;DHT22;5198;52.382;9.020;2023-03-24T04:30:37;13.20;99.90
10306;DHT22;5198;52.382;9.020;2023-03-24T04:34:45;13.20;99.90
10306;DHT22;5198;52.382;9.020;2023-03-24T04:38:51;13.20;99.90
10306;DHT22;5198;52.382;9.020;2023-03-24T04:42:55;13.10;99.90
10306;DHT22;5198;52.382;9.020;2023-03-24T04:46:59;13.10;99.90
10306;DHT22;5198;52.382;9.020;2023-03-24T04:51:05;13.10;99.90
10306;DHT22;5198;52.382;9.020;2023-03-24T04:55:17;13.10;99.90
10306;DHT22;5198;52.382;9.020;2023-03-24T04:59:28;13.10;99.90
10306;DHT22;5198;52.382;9.020;2023-03-24T05:03:31;13.10;99.90
10306;DHT22;5198;52.382;9.020;2023-03-24T05:07:40;13.10;99.90
10306;DHT22;5198;52.382;9.020;2023-03-24T05:11:43;13.10;99.90
10306;DHT22;5198;52.382;9.020;2023-03-24T05:15:46;13.20;99.90
10306;DHT22;5198;52.382;9.020;2023-03-24T05:19:48;13.20;99.90
10306;DHT22;5198;52.382;9.020;2023-03-24T05:23:53;13.30;99.90
10306;DHT22;5198;52.382;9.020;2023-03-24T05:27:55;13.30;99.90
10306;DHT22;5198;52.382;9.020;2023-03-24T05:31:58;13.30;99.90
10306;DHT22;5198;52.382;9.020;2023-03-24T05:36:09;13.40;99.90
10306;DHT22;5198;52.382;9.020;2023-03-24T05:40:14;13.40;99.90
10306;DHT22;5198;52.382;9.020;2023-03-24T05:44:17;13.50;99.90
10306;DHT22;5198;52.382;9.020;2023-03-24T05:48:20;13.50;99.90
10306;DHT22;5198;52.382;9.020;2023-03-24T05:52:22;13.50;99.90
10306;DHT22;5198;52.382;9.020;2023-03-24T05:56:30;13.50;99.90
10306;DHT22;5198;52.382;9.020;2023-03-24T06:00:33;13.50;99.90
10306;DHT22;5198;52.382;9.020;2023-03-24T06:04:36;13.60;99.90
10306;DHT22;5198;52.382;9.020;2023-03-24T06:08:39;13.50;99.90
10306;DHT22;5198;52.382;9.020;2023-03-24T06:12:43;13.50;99.90
10306;DHT22;5198;52.382;9.020;2023-03-24T06:16:54;13.50;99.90
10306;DHT22;5198;52.382;9.020;2023-03-24T06:20:59;13.50;99.90
10306;DHT22;5198;52.382;9.020;2023-03-24T06:25:03;13.50;99.90
10306;DHT22;5198;52.382;9.020;2023-03-24T06:29:14;13.40;99.90
10306;DHT22;5198;52.382;9.020;2023-03-24T06:33:18;13.40;99.90
10306;DHT22;5198;52.382;9.020;2023-03-24T06:37:22;13.30;99.90
10306;DHT22;5198;52.382;9.020;2023-03-24T06:41:27;13.30;99.90
10306;DHT22;5198;52.382;9.020;2023-03-24T06:45:31;13.30;99.90
10306;DHT22;5198;52.382;9.020;2023-03-24T06:49:35;13.30;99.90
10306;DHT22;5198;52.382;9.020;2023-03-24T06:53:38;13.20;99.90
10306;DHT22;5198;52.382;9.020;2023-03-24T06:57:41;13.20;99.90
10306;DHT22;5198;52.382;9.020;2023-03-24T07:01:46;13.20;99.90
10306;DHT22;5198;52.382;9.020;2023-03-24T07:05:50;13.10;99.90
10306;DHT22;5198;52.382;9.020;2023-03-24T07:10:03;13.10;99.90
10306;DHT22;5198;52.382;9.020;2023-03-24T07:14:06;13.10;99.90
10306;DHT22;5198;52.382;9.020;2023-03-24T07:18:11;13.00;99.90
10306;DHT22;5198;52.382;9.020;2023-03-24T07:22:14;13.00;99.90
10306;DHT22;5198;52.382;9.020;2023-03-24T07:26:17;13.00;99.90
10306;DHT22;5198;52.382;9.020;2023-03-24T07:30:20;13.00;99.90
10306;DHT22;5198;52.382;9.020;2023-03-24T07:34:35;13.00;99.90
10306;DHT22;5198;52.382;9.020;2023-03-24T07:38:39;13.00;99.90
10306;DHT22;5198;52.382;9.020;2023-03-24T07:42:42;13.00;99.90
10306;DHT22;5198;52.382;9.020;2023-03-24T07:46:45;12.90;99.90
10306;DHT22;5198;52.382;9.020;2023-03-24T07:50:50;12.90;99.90
10306;DHT22;5198;52.382;9.020;2023-03-24T07:54:53;13.00;99.90
10306;DHT22;5198;52.382;9.020;2023-03-24T07:58:56;13.00;99.90
10306;DHT22;5198;52.382;9.020;2023-03-24T08:02:59;13.00;99.90
10306;DHT22;5198;52.382;9.020;2023-03-24T08:07:05;13.00;99.90
10306;DHT22;5198;52.382;9.020;2023-03-24T08:11:08;13.00;99.90
10306;DHT22;5198;52.382;9.020;2023-03-24T08:15:11;13.00;99.90
10306;DHT22;5198;52.382;9.020;2023-03-24T08:19:15;12.90;99.90
10306;DHT22;5198;52.382;9.020;2023-03-24T08:23:19;12.90;99.90
10306;DHT22;5198;52.382;9.020;2023-03-24T08:27:22;12.90;99.90
10306;DHT22;5198;52.382;9.020;2023-03-24T08:31:29;13.00;99.90
10306;DHT22;5198;52.382;9.020;2023-03-24T08:35:33;13.00;99.90
10306;DHT22;5198;52.382;9.020;2023-03-24T08:39:40;13.00;99.90
10306;DHT22;5198;52.382;9.020;2023-03-24T08:43:43;13.10;99.90
10306;DHT22;5198;52.382;9.020;2023-03-24T08:47:46;13.30;99.90
10306;DHT22;5198;52.382;9.020;2023-03-24T08:51:51;13.40;99.90
10306;DHT22;5198;52.382;9.020;2023-03-24T08:55:55;13.50;99.90
10306;DHT22;5198;52.382;9.020;2023-03-24T08:59:58;13.50;99.90
10306;DHT22;5198;52.382;9.020;2023-03-24T09:04:00;13.50;99.90
10306;DHT22;5198;52.382;9.020;2023-03-24T09:08:04;13.50;99.90
10306;DHT22;5198;52.382;9.020;2023-03-24T09:12:10;13.40;99.90
10306;DHT22;5198;52.382;9.020;2023-03-24T09:16:12;13.40;99.90
10306;DHT22;5198;52.382;9.020;2023-03-24T09:20:16;13.40;99.90
10306;DHT22;5198;52.382;9.020;2023-03-24T09:24:21;13.30;99.90
10306;DHT22;5198;52.382;9.020;2023-03-24T09:28:25;13.30;99.90
10306;DHT22;5198;52.382;9.020;2023-03-24T09:32:28;13.20;99.90
10306;DHT22;5198;52.382;9.020;2023-03-24T09:36:31;13.20;99.90
10306;DHT22;5198;52.382;9.020;2023-03-24T09:40:34;13.20;99.90
10306;DHT22;5198;52.382;9.020;2023-03-24T09:44:39;13.20;99.90
10306;DHT22;5198;52.382;9.020;2023-03-24T09:48:54;13.20;99.90
10306;DHT22;5198;52.382;9.020;2023-03-24T09:53:01;13.30;99.90
10306;DHT22;5198;52.382;9.020;2023-03-24T09:57:13;13.30;99.90
10306;DHT22;5198;52.382;9.020;2023-03-24T10:01:20;13.30;99.90
10306;DHT22;5198;52.382;9.020;2023-03-24T10:05:29;13.30;99.90
10306;DHT22;5198;52.382;9.020;2023-03-24T10:09:35;13.30;99.90
10306;DHT22;5198;52.382;9.020;2023-03-24T10:13:50;13.30;99.90
10306;DHT22;5198;52.382;9.020;2023-03-24T10:18:02;13.40;99.90
10306;DHT22;5198;52.382;9.020;2023-03-24T10:22:13;13.50;99.90
10306;DHT22;5198;52.382;9.020;2023-03-24T10:26:28;13.60;99.90
10306;DHT22;5198;52.382;9.020;2023-03-24T10:30:38;13.60;99.90
10306;DHT22;5198;52.382;9.020;2023-03-24T10:34:50;13.60;99.90
10306;DHT22;5198;52.382;9.020;2023-03-24T10:38:56;13.60;99.90
10306;DHT22;5198;52.382;9.020;2023-03-24T10:43:07;13.70;99.90
10306;DHT22;5198;52.382;9.020;2023-03-24T10:47:12;13.90;99.90
10306;DHT22;5198;52.382;9.020;2023-03-24T10:51:19;14.00;99.90
10306;DHT22;5198;52.382;9.020;2023-03-24T10:55:27;14.10;99.90
10306;DHT22;5198;52.382;9.020;2023-03-24T10:59:33;14.20;99.90
10306;DHT22;5198;52.382;9.020;2023-03-24T11:03:37;14.20;99.90
10306;DHT22;5198;52.382;9.020;2023-03-24T11:07:42;14.30;99.90
10306;DHT22;5198;52.382;9.020;2023-03-24T11:11:47;14.30;99.90
10306;DHT22;5198;52.382;9.020;2023-03-24T11:15:55;14.40;99.90
10306;DHT22;5198;52.382;9.020;2023-03-24T11:19:59;14.60;99.90
10306;DHT22;5198;52.382;9.020;2023-03-24T11:24:09;14.70;99.90
10306;DHT22;5198;52.382;9.020;2023-03-24T11:28:15;14.70;99.90
10306;DHT22;5198;52.382;9.020;2023-03-24T11:32:22;14.60;99.90
10306;DHT22;5198;52.382;9.020;2023-03-24T11:36:46;14.60;99.90
10306;DHT22;5198;52.382;9.020;2023-03-24T11:40:58;14.50;99.90
10306;DHT22;5198;52.382;9.020;2023-03-24T11:45:01;14.50;99.90
10306;DHT22;5198;52.382;9.020;2023-03-24T11:49:05;14.50;99.90
10306;DHT22;5198;52.382;9.020;2023-03-24T11:53:09;14.40;99.90
10306;DHT22;5198;52.382;9.020;2023-03-24T11:57:15;14.40;99.90
10306;DHT22;5198;52.382;9.020;2023-03-24T12:01:29;14.40;99.90
10306;DHT22;5198;52.382;9.020;2023-03-24T12:05:35;14.50;99.90
10306;DHT22;5198;52.382;9.020;2023-03-24T12:09:40;14.60;99.90
10306;DHT22;5198;52.382;9.020;2023-03-24T12:13:48;14.80;99.90
10306;DHT22;5198;52.382;9.020;2023-03-24T12:17:53;15.10;99.90
10306;DHT22;5198;52.382;9.020;2023-03-24T12:22:01;15.20;99.90
10306;DHT22;5198;52.382;9.020;2023-03-24T12:30:25;15.40;99.90
10306;DHT22;5198;52.382;9.020;2023-03-24T12:39:06;15.40;99.90
10306;DHT22;5198;52.382;9.020;2023-03-24T12:43:13;15.30;99.90
10306;DHT22;5198;52.382;9.020;2023-03-24T12:47:26;15.20;99.90
10306;DHT22;5198;52.382;9.020;2023-03-24T12:51:34;15.10;99.90
10306;DHT22;5198;52.382;9.020;2023-03-24T12:55:45;15.00;99.90
10306;DHT22;5198;52.382;9.020;2023-03-24T12:59:51;14.80;99.90
10306;DHT22;5198;52.382;9.020;2023-03-24T13:03:58;14.80;99.90
10306;DHT22;5198;52.382;9.020;2023-03-24T13:08:27;14.80;99.90
10306;DHT22;5198;52.382;9.020;2023-03-24T13:12:31;14.80;99.90
10306;DHT22;5198;52.382;9.020;2023-03-24T13:16:36;14.70;99.90
10306;DHT22;5198;52.382;9.020;2023-03-24T13:20:41;14.70;99.90
10306;DHT22;5198;52.382;9.020;2023-03-24T13:24:45;14.70;99.90
10306;DHT22;5198;52.382;9.020;2023-03-24T13:28:53;14.70;99.90
10306;DHT22;5198;52.382;9.020;2023-03-24T13:33:04;14.60;99.90
10306;DHT22;5198;52.382;9.020;2023-03-24T13:37:10;14.60;99.90
10306;DHT22;5198;52.382;9.020;2023-03-24T13:41:16;14.50;99.90
10306;DHT22;5198;52.382;9.020;2023-03-24T13:45:29;14.50;99.90
10306;DHT22;5198;52.382;9.020;2023-03-24T13:49:35;14.40;99.90
10306;DHT22;5198;52.382;9.020;2023-03-24T13:53:54;14.40;99.90
10306;DHT22;5198;52.382;9.020;2023-03-24T13:57:58;14.30;99.90
10306;DHT22;5198;52.382;9.020;2023-03-24T14:02:18;14.30;99.90
10306;DHT22;5198;52.382;9.020;2023-03-24T14:06:23;14.30;99.90
10306;DHT22;5198;52.382;9.020;2023-03-24T14:10:47;14.30;99.90
10306;DHT22;5198;52.382;9.020;2023-03-24T14:19:20;14.10;99.90
10306;DHT22;5198;52.382;9.020;2023-03-24T14:23:23;14.00;99.90
10306;DHT22;5198;52.382;9.020;2023-03-24T14:27:34;14.00;99.90
10306;DHT22;5198;52.382;9.020;2023-03-24T14:31:45;14.10;99.90
10306;DHT22;5198;52.382;9.020;2023-03-24T14:35:55;14.10;99.90
10306;DHT22;5198;52.382;9.020;2023-03-24T14:39:59;14.30;99.90
10306;DHT22;5198;52.382;9.020;2023-03-24T14:44:04;14.40;99.90
10306;DHT22;5198;52.382;9.020;2023-03-24T14:48:18;14.50;99.90
10306;DHT22;5198;52.382;9.020;2023-03-24T14:52:24;14.50;99.90
10306;DHT22;5198;52.382;9.020;2023-03-24T14:56:31;14.50;99.90
10306;DHT22;5198;52.382;9.020;2023-03-24T15:00:38;14.50;99.90
10306;DHT22;5198;52.382;9.020;2023-03-24T15:09:12;14.40;99.90
10306;DHT22;5198;52.382;9.020;2023-03-24T15:17:39;14.10;99.90
10306;DHT22;5198;52.382;9.020;2023-03-24T15:21:47;14.00;99.90
10306;DHT22;5198;52.382;9.020;2023-03-24T15:25:55;13.90;99.90
10306;DHT22;5198;52.382;9.020;2023-03-24T15:29:58;13.80;99.90
10306;DHT22;5198;52.382;9.020;2023-03-24T15:34:04;13.70;99.90
10306;DHT22;5198;52.382;9.020;2023-03-24T15:38:16;13.60;99.90
10306;DHT22;5198;52.382;9.020;2023-03-24T15:42:21;13.50;99.90
10306;DHT22;5198;52.382;9.020;2023-03-24T15:46:26;13.40;99.90
10306;DHT22;5198;52.382;9.020;2023-03-24T15:50:32;13.20;99.90
10306;DHT22;5198;52.382;9.020;2023-03-24T15:54:37;13.00;99.90
10306;DHT22;5198;52.382;9.020;2023-03-24T15:58:44;12.50;99.90
10306;DHT22;5198;52.382;9.020;2023-03-24T16:02:48;12.40;99.90
10306;DHT22;5198;52.382;9.020;2023-03-24T16:06:54;12.20;99.90
10306;DHT22;5198;52.382;9.020;2023-03-24T16:10:58;12.10;99.90
10306;DHT22;5198;52.382;9.020;2023-03-24T16:15:02;11.90;99.90
10306;DHT22;5198;52.382;9.020;2023-03-24T16:19:06;11.80;99.90
10306;DHT22;5198;52.382;9.020;2023-03-24T16:23:11;11.90;99.90
10306;DHT22;5198;52.382;9.020;2023-03-24T16:27:14;12.10;99.90
10306;DHT22;5198;52.382;9.020;2023-03-24T16:31:19;12.30;99.90
10306;DHT22;5198;52.382;9.020;2023-03-24T16:35:28;12.50;99.90
10306;DHT22;5198;52.382;9.020;2023-03-24T16:39:38;12.60;99.90
10306;DHT22;5198;52.382;9.020;2023-03-24T16:43:41;12.60;99.90
10306;DHT22;5198;52.382;9.020;2023-03-24T16:47:44;12.50;99.90
10306;DHT22;5198;52.382;9.020;2023-03-24T16:51:47;12.40;99.90
10306;DHT22;5198;52.382;9.020;2023-03-24T16:55:52;12.30;99.90
10306;DHT22;5198;52.382;9.020;2023-03-24T16:59:55;12.10;99.90
10306;DHT22;5198;52.382;9.020;2023-03-24T17:03:58;12.00;99.90
10306;DHT22;5198;52.382;9.020;2023-03-24T17:08:02;11.80;99.90
10306;DHT22;5198;52.382;9.020;2023-03-24T17:12:07;11.70;99.90
10306;DHT22;5198;52.382;9.020;2023-03-24T17:16:10;11.60;99.90
10306;DHT22;5198;52.382;9.020;2023-03-24T17:20:13;11.50;99.90
10306;DHT22;5198;52.382;9.020;2023-03-24T17:24:16;11.40;99.90
10306;DHT22;5198;52.382;9.020;2023-03-24T17:28:21;11.30;99.90
10306;DHT22;5198;52.382;9.020;2023-03-24T17:32:26;11.30;99.90
10306;DHT22;5198;52.382;9.020;2023-03-24T17:36:31;11.30;99.90
10306;DHT22;5198;52.382;9.020;2023-03-24T17:40:34;11.20;99.90
10306;DHT22;5198;52.382;9.020;2023-03-24T17:44:38;11.20;99.90
10306;DHT22;5198;52.382;9.020;2023-03-24T17:48:41;11.20;99.90
10306;DHT22;5198;52.382;9.020;2023-03-24T17:52:48;11.10;99.90
10306;DHT22;5198;52.382;9.020;2023-03-24T17:56:51;11.10;99.90
10306;DHT22;5198;52.382;9.020;2023-03-24T18:00:57;11.10;99.90
10306;DHT22;5198;52.382;9.020;2023-03-24T18:05:10;11.00;99.90
10306;DHT22;5198;52.382;9.020;2023-03-24T18:09:13;11.00;99.90
10306;DHT22;5198;52.382;9.020;2023-03-24T18:13:17;11.00;99.90
10306;DHT22;5198;52.382;9.020;2023-03-24T18:17:22;11.00;99.90
10306;DHT22;5198;52.382;9.020;2023-03-24T18:21:25;11.00;99.90
10306;DHT22;5198;52.382;9.020;2023-03-24T18:25:28;11.00;99.90
10306;DHT22;5198;52.382;9.020;2023-03-24T18:29:32;11.00;99.90
10306;DHT22;5198;52.382;9.020;2023-03-24T18:33:37;10.90;99.90
10306;DHT22;5198;52.382;9.020;2023-03-24T18:37:43;10.90;99.90
10306;DHT22;5198;52.382;9.020;2023-03-24T18:41:46;10.90;99.90
10306;DHT22;5198;52.382;9.020;2023-03-24T18:45:50;10.90;99.90
10306;DHT22;5198;52.382;9.020;2023-03-24T18:49:58;10.90;99.90
10306;DHT22;5198;52.382;9.020;2023-03-24T18:54:14;10.90;99.90
10306;DHT22;5198;52.382;9.020;2023-03-24T18:58:17;10.90;99.90
10306;DHT22;5198;52.382;9.020;2023-03-24T19:02:20;10.90;99.90
10306;DHT22;5198;52.382;9.020;2023-03-24T19:06:25;10.90;99.90
10306;DHT22;5198;52.382;9.020;2023-03-24T19:10:32;10.80;99.90
10306;DHT22;5198;52.382;9.020;2023-03-24T19:14:35;10.80;99.90
10306;DHT22;5198;52.382;9.020;2023-03-24T19:18:38;10.80;99.90
10306;DHT22;5198;52.382;9.020;2023-03-24T19:22:43;10.80;99.90
10306;DHT22;5198;52.382;9.020;2023-03-24T19:26:47;10.80;99.90
10306;DHT22;5198;52.382;9.020;2023-03-24T19:30:50;10.80;99.90
10306;DHT22;5198;52.382;9.020;2023-03-24T19:34:53;10.70;99.90
10306;DHT22;5198;52.382;9.020;2023-03-24T19:43:08;10.70;99.90
10306;DHT22;5198;52.382;9.020;2023-03-24T19:47:12;10.60;99.90
10306;DHT22;5198;52.382;9.020;2023-03-24T19:51:14;10.60;99.90
10306;DHT22;5198;52.382;9.020;2023-03-24T19:55:19;10.50;99.90
10306;DHT22;5198;52.382;9.020;2023-03-24T19:59:23;10.50;99.90
10306;DHT22;5198;52.382;9.020;2023-03-24T20:03:26;10.50;99.90
10306;DHT22;5198;52.382;9.020;2023-03-24T20:07:29;10.50;99.90
10306;DHT22;5198;52.382;9.020;2023-03-24T20:11:32;10.40;99.90
10306;DHT22;5198;52.382;9.020;2023-03-24T20:15:36;10.40;99.90
10306;DHT22;5198;52.382;9.020;2023-03-24T20:19:39;10.40;99.90
10306;DHT22;5198;52.382;9.020;2023-03-24T20:23:43;10.40;99.90
10306;DHT22;5198;52.382;9.020;2023-03-24T20:27:46;10.40;99.90
10306;DHT22;5198;52.382;9.020;2023-03-24T20:31:50;10.30;99.90
10306;DHT22;5198;52.382;9.020;2023-03-24T20:35:53;10.30;99.90
10306;DHT22;5198;52.382;9.020;2023-03-24T20:39:57;10.30;99.90
10306;DHT22;5198;52.382;9.020;2023-03-24T20:44:00;10.30;99.90
10306;DHT22;5198;52.382;9.020;2023-03-24T20:48:05;10.30;99.90
10306;DHT22;5198;52.382;9.020;2023-03-24T20:52:07;10.30;99.90
10306;DHT22;5198;52.382;9.020;2023-03-24T20:56:11;10.20;99.90
10306;DHT22;5198;52.382;9.020;2023-03-24T21:00:15;10.20;99.90
10306;DHT22;5198;52.382;9.020;2023-03-24T21:04:22;10.20;99.90
10306;DHT22;5198;52.382;9.020;2023-03-24T21:08:25;10.10;99.90
10306;DHT22;5198;52.382;9.020;2023-03-24T21:12:28;10.10;99.90
10306;DHT22;5198;52.382;9.020;2023-03-24T21:16:30;10.10;99.90
10306;DHT22;5198;52.382;9.020;2023-03-24T21:20:39;10.10;99.90
10306;DHT22;5198;52.382;9.020;2023-03-24T21:24:47;10.10;99.90
10306;DHT22;5198;52.382;9.020;2023-03-24T21:28:50;10.10;99.90
10306;DHT22;5198;52.382;9.020;2023-03-24T21:32:54;10.10;99.90
10306;DHT22;5198;52.382;9.020;2023-03-24T21:36:59;10.10;99.90
10306;DHT22;5198;52.382;9.020;2023-03-24T21:41:03;10.10;99.90
10306;DHT22;5198;52.382;9.020;2023-03-24T21:45:07;10.10;99.90
10306;DHT22;5198;52.382;9.020;2023-03-24T21:49:10;10.10;99.90
10306;DHT22;5198;52.382;9.020;2023-03-24T21:53:15;10.10;99.90
10306;DHT22;5198;52.382;9.020;2023-03-24T21:57:19;10.10;99.90
10306;DHT22;5198;52.382;9.020;2023-03-24T22:01:22;10.10;99.90
10306;DHT22;5198;52.382;9.020;2023-03-24T22:05:27;10.10;99.90
10306;DHT22;5198;52.382;9.020;2023-03-24T22:09:31;10.20;99.90
10306;DHT22;5198;52.382;9.020;2023-03-24T22:13:34;10.20;99.90
10306;DHT22;5198;52.382;9.020;2023-03-24T22:17:43;10.20;99.90
10306;DHT22;5198;52.382;9.020;2023-03-24T22:21:45;10.20;99.90
10306;DHT22;5198;52.382;9.020;2023-03-24T22:25:52;10.30;99.90
10306;DHT22;5198;52.382;9.020;2023-03-24T22:29:54;10.30;99.90
10306;DHT22;5198;52.382;9.020;2023-03-24T22:33:57;10.30;99.90
10306;DHT22;5198;52.382;9.020;2023-03-24T22:38:05;10.30;99.90
10306;DHT22;5198;52.382;9.020;2023-03-24T22:42:18;10.30;99.90
10306;DHT22;5198;52.382;9.020;2023-03-24T22:46:22;10.30;99.90
10306;DHT22;5198;52.382;9.020;2023-03-24T22:50:25;10.40;99.90
10306;DHT22;5198;52.382;9.020;2023-03-24T22:54:29;10.30;99.90
10306;DHT22;5198;52.382;9.020;2023-03-24T22:58:37;10.30;99.90
10306;DHT22;5198;52.382;9.020;2023-03-24T23:02:41;10.30;99.90
10306;DHT22;5198;52.382;9.020;2023-03-24T23:06:45;10.30;99.90
10306;DHT22;5198;52.382;9.020;2023-03-24T23:10:48;10.30;99.90
10306;DHT22;5198;52.382;9.020;2023-03-24T23:14:52;10.20;99.90
10306;DHT22;5198;52.382;9.020;2023-03-24T23:18:56;10.20;99.90
10306;DHT22;5198;52.382;9.020;2023-03-24T23:22:59;10.20;99.90
10306;DHT22;5198;52.382;9.020;2023-03-24T23:27:04;10.20;99.90
10306;DHT22;5198;52.382;9.020;2023-03-24T23:31:10;10.20;99.90
10306;DHT22;5198;52.382;9.020;2023-03-24T23:35:14;10.20;99.90
10306;DHT22;5198;52.382;9.020;2023-03-24T23:39:17;10.20;99.90
10306;DHT22;5198;52.382;9.020;2023-03-24T23:43:22;10.20;99.90
10306;DHT22;5198;52.382;9.020;2023-03-24T23:47:26;10.10;99.90
10306;DHT22;5198;52.382;9.020;2023-03-24T23:51:31;10.10;99.90
10306;DHT22;5198;52.382;9.020;2023-03-24T23:55:33;10.10;99.90
10306;DHT22;5198;52.382;9.020;2023-03-24T23:59:37;10.10;99.90
